Time;durP1;ratioP1;P1;durP2;ratioP2;P2;SDS_P1;SDS_P2;PMS_P1;PMS_P2;Temp;Humidity;BMP_temperature;BMP_pressure;BME280_temperature;BME280_humidity;BME280_pressure;Samples;Min_cycle;Max_cycle;Signal;HPM_P1;HPM_P2
2023/08/07 00:02:01;;;;;;;;;;;;;;;16.47;65.58;100319.38;4990727;28;6927;-73
2023/08/07 00:04:27;;;;;;;;;;;;;;;16.47;65.76;100326.28;4989153;28;6843;-72
2023/08/07 00:06:53;;;;;;;;;;;;;;;16.49;65.29;100329.78;5003168;28;7231;-71
2023/08/07 00:09:18;;;;;;;;;;;;;;;16.49;65.21;100333.22;4997161;28;6957;-72
2023/08/07 00:11:44;;;;;;;;;;;;;;;16.47;65.10;100332.31;4984201;28;6856;-72
2023/08/07 00:14:09;;;;;;;;;;;;;;;16.50;65.22;100328.94;4983278;28;7242;-72
2023/08/07 00:16:35;;;;;;;;;;;;;;;16.49;65.31;100322.88;4989512;28;6970;-71
2023/08/07 00:19:02;;;;;;;;;;;;;;;16.49;65.08;100335.81;4989438;28;6938;-73
2023/08/07 00:21:27;;;;;;;;;;;;;;;16.47;65.04;100327.13;4979079;28;8551;-72
2023/08/07 00:23:54;;;;;;;;;;;;;;;16.48;65.15;100325.44;5005293;28;7352;-70
2023/08/07 00:26:20;;;;;;;;;;;;;;;16.48;65.75;100338.38;4982633;28;7239;-72
2023/08/07 00:28:46;;;;;;;;;;;;;;;16.48;65.36;100339.22;4995906;28;8196;-72
2023/08/07 00:31:12;;;;;;;;;;;;;;;16.49;65.36;100333.22;5007159;28;6860;-71
2023/08/07 00:33:38;;;;;;;;;;;;;;;16.50;65.37;100341.84;4992889;28;7012;-71
2023/08/07 00:36:03;;;;;;;;;;;;;;;16.51;65.14;100338.44;5003564;28;6985;-72
2023/08/07 00:38:29;;;;;;;;;;;;;;;16.52;64.95;100340.19;4994979;28;6830;-72
2023/08/07 00:40:54;;;;;;;;;;;;;;;16.51;65.12;100338.44;5010807;28;6934;-72
2023/08/07 00:43:20;;;;;;;;;;;;;;;16.50;64.74;100337.53;5011742;28;6787;-71
2023/08/07 00:45:47;;;;;;;;;;;;;;;16.51;65.05;100325.50;5008825;28;6917;-71
2023/08/07 00:48:13;;;;;;;;;;;;;;;16.52;65.20;100341.06;4995252;28;6979;-73
2023/08/07 00:50:40;;;;;;;;;;;;;;;16.50;65.12;100334.97;5005629;28;6847;-71
2023/08/07 00:53:06;;;;;;;;;;;;;;;16.51;64.98;100331.56;4974150;28;7056;-71
2023/08/07 00:55:32;;;;;;;;;;;;;;;16.52;65.19;100335.88;4992004;28;6816;-70
2023/08/07 00:57:58;;;;;;;;;;;;;;;16.55;64.93;100334.19;4996023;28;7781;-72
2023/08/07 01:00:25;;;;;;;;;;;;;;;16.56;65.06;100331.63;4987384;28;6799;-71
2023/08/07 01:02:52;;;;;;;;;;;;;;;16.56;64.92;100341.97;4989189;28;7301;-72
2023/08/07 01:05:18;;;;;;;;;;;;;;;16.58;65.33;100334.25;4983746;28;6804;-71
2023/08/07 01:07:46;;;;;;;;;;;;;;;16.57;64.69;100336.00;4992862;28;6808;-71
2023/08/07 01:10:11;;;;;;;;;;;;;;;16.57;64.69;100325.66;4983485;28;6812;-72
2023/08/07 01:12:48;;;;;;;;;;;;;;;16.57;65.05;100337.69;5004191;28;6973;-72
2023/08/07 01:15:23;;;;;;;;;;;;;;;16.58;65.12;100340.31;4990303;28;6800;-71
2023/08/07 01:17:49;;;;;;;;;;;;;;;16.59;64.82;100336.00;4984247;28;7086;-71
2023/08/07 01:20:15;;;;;;;;;;;;;;;16.58;64.83;100345.50;4980593;28;7209;-73
2023/08/07 01:22:40;;;;;;;;;;;;;;;16.58;64.57;100342.91;4997923;28;6875;-71
2023/08/07 01:25:06;;;;;;;;;;;;;;;16.59;64.94;100346.34;4999313;28;7310;-70
2023/08/07 01:27:36;;;;;;;;;;;;;;;16.58;64.72;100348.09;4993608;28;7388;-72
2023/08/07 01:30:15;;;;;;;;;;;;;;;16.58;64.45;100347.19;5007126;28;6961;-72
2023/08/07 01:33:10;;;;;;;;;;;;;;;16.59;64.76;100351.53;4994159;28;11524;-72
2023/08/07 01:35:43;;;;;;;;;;;;;;;16.57;64.35;100343.75;4987695;28;7149;-73
2023/08/07 01:38:08;;;;;;;;;;;;;;;16.57;64.58;100343.75;4991470;28;7281;-71
2023/08/07 01:40:36;;;;;;;;;;;;;;;16.59;64.38;100349.84;4980203;28;6963;-72
2023/08/07 01:43:01;;;;;;;;;;;;;;;16.60;64.87;100354.16;4996259;28;6872;-72
2023/08/07 01:45:28;;;;;;;;;;;;;;;16.61;64.68;100349.84;4993440;28;7058;-71
2023/08/07 01:47:54;;;;;;;;;;;;;;;16.62;64.31;100351.63;4998696;28;7354;-72
2023/08/07 01:50:20;;;;;;;;;;;;;;;16.62;64.42;100352.47;4997096;28;7307;-73
2023/08/07 01:52:46;;;;;;;;;;;;;;;16.64;64.18;100355.09;5012179;28;6804;-72
2023/08/07 01:55:13;;;;;;;;;;;;;;;16.64;64.25;100344.75;4978793;28;7064;-71
2023/08/07 01:57:38;;;;;;;;;;;;;;;16.64;64.02;100349.94;4982766;28;6827;-72
2023/08/07 02:00:05;;;;;;;;;;;;;;;16.64;64.63;100347.34;4972034;28;7350;-71
2023/08/07 02:02:30;;;;;;;;;;;;;;;16.66;64.13;100350.84;4991832;28;7019;-73
2023/08/07 02:04:56;;;;;;;;;;;;;;;16.65;64.38;100347.34;4988305;28;7481;-73
2023/08/07 02:07:21;;;;;;;;;;;;;;;16.66;64.37;100343.06;4975071;28;9173;-71
2023/08/07 02:09:47;;;;;;;;;;;;;;;16.65;64.21;100357.72;4991947;28;6969;-73
2023/08/07 02:12:12;;;;;;;;;;;;;;;16.66;64.41;100358.59;4970774;28;6858;-71
2023/08/07 02:14:37;;;;;;;;;;;;;;;16.66;64.06;100361.19;4980820;28;8370;-72
2023/08/07 02:17:03;;;;;;;;;;;;;;;16.66;64.10;100354.31;4991434;28;6848;-71
2023/08/07 02:19:29;;;;;;;;;;;;;;;16.66;64.25;100359.50;4990434;28;6867;-73
2023/08/07 02:21:54;;;;;;;;;;;;;;;16.66;64.40;100361.19;4991963;28;6791;-71
2023/08/07 02:24:20;;;;;;;;;;;;;;;16.66;64.00;100361.19;4996401;28;7084;-73
2023/08/07 02:26:45;;;;;;;;;;;;;;;16.68;63.60;100366.41;4975774;28;6792;-71
2023/08/07 02:29:11;;;;;;;;;;;;;;;16.69;64.04;100361.25;4981685;28;6992;-73
2023/08/07 02:31:36;;;;;;;;;;;;;;;16.70;64.12;100370.75;4975348;28;7185;-72
2023/08/07 02:34:02;;;;;;;;;;;;;;;16.71;64.21;100369.94;4983173;28;7029;-72
2023/08/07 02:36:27;;;;;;;;;;;;;;;16.71;63.85;100358.69;4979870;28;6803;-72
2023/08/07 02:38:53;;;;;;;;;;;;;;;16.70;63.49;100369.91;4982404;28;6804;-72
2023/08/07 02:41:18;;;;;;;;;;;;;;;16.69;63.46;100371.59;4994604;28;6807;-72
2023/08/07 02:43:44;;;;;;;;;;;;;;;16.66;63.37;100372.44;4980778;28;6803;-73
2023/08/07 02:46:09;;;;;;;;;;;;;;;16.64;64.10;100380.97;4976039;28;6802;-75
2023/08/07 02:48:34;;;;;;;;;;;;;;;16.61;63.66;100368.84;4981921;28;7214;-75
2023/08/07 02:51:00;;;;;;;;;;;;;;;16.61;63.62;100373.13;4976889;28;6856;-74
2023/08/07 02:53:25;;;;;;;;;;;;;;;16.59;63.40;100380.00;4995727;28;6787;-74
2023/08/07 02:55:51;;;;;;;;;;;;;;;16.57;63.84;100379.97;4979426;28;6804;-75
2023/08/07 02:58:16;;;;;;;;;;;;;;;16.57;63.71;100373.91;4983988;28;7234;-75
2023/08/07 03:00:43;;;;;;;;;;;;;;;16.57;63.60;100385.16;4989110;28;6792;-74
2023/08/07 03:03:09;;;;;;;;;;;;;;;16.57;64.07;100379.09;4986217;28;7283;-73
2023/08/07 03:05:34;;;;;;;;;;;;;;;16.58;63.80;100386.00;4976594;28;7265;-75
2023/08/07 03:08:00;;;;;;;;;;;;;;;16.57;63.63;100385.16;4984326;28;6943;-73
2023/08/07 03:10:25;;;;;;;;;;;;;;;16.58;63.97;100392.06;4941931;28;7277;-74
2023/08/07 03:12:50;;;;;;;;;;;;;;;16.58;63.56;100384.31;4978370;28;6982;-75
2023/08/07 03:15:16;;;;;;;;;;;;;;;16.58;64.19;100388.59;4975352;28;8277;-74
2023/08/07 03:17:42;;;;;;;;;;;;;;;16.54;64.05;100384.19;4979786;28;7190;-76
2023/08/07 03:20:08;;;;;;;;;;;;;;;16.49;63.60;100387.53;4973663;28;7223;-75
2023/08/07 03:22:33;;;;;;;;;;;;;;;16.46;63.71;100386.59;4971594;28;6795;-74
2023/08/07 03:24:59;;;;;;;;;;;;;;;16.43;63.68;100384.81;4989874;28;7126;-76
2023/08/07 03:27:24;;;;;;;;;;;;;;;16.42;64.56;100380.50;4989605;28;7408;-73
2023/08/07 03:29:50;;;;;;;;;;;;;;;16.42;64.44;100384.78;4979149;28;6800;-76
2023/08/07 03:32:15;;;;;;;;;;;;;;;16.41;64.15;100373.53;4997671;28;7071;-75
2023/08/07 03:34:41;;;;;;;;;;;;;;;16.42;64.23;100374.44;4990516;28;7261;-73
2023/08/07 03:37:06;;;;;;;;;;;;;;;16.42;63.88;100374.44;4985657;28;7273;-75
2023/08/07 03:39:32;;;;;;;;;;;;;;;16.41;64.20;100377.84;4978112;28;7275;-77
2023/08/07 03:41:57;;;;;;;;;;;;;;;16.41;63.99;100373.53;4978562;28;6835;-74
2023/08/07 03:44:23;;;;;;;;;;;;;;;16.41;64.15;100377.84;4960151;28;7018;-75
2023/08/07 03:46:48;;;;;;;;;;;;;;;16.40;64.29;100376.97;4964611;28;7650;-74
2023/08/07 03:49:14;;;;;;;;;;;;;;;16.39;63.94;100377.81;4973552;28;6792;-74
2023/08/07 03:51:39;;;;;;;;;;;;;;;16.38;64.00;100383.81;4984718;28;6860;-75
2023/08/07 03:54:05;;;;;;;;;;;;;;;16.37;64.39;100382.97;4970224;28;7058;-75
2023/08/07 03:56:36;;;;;;;;;;;;;;;16.36;64.22;100380.34;4952370;28;6987;-74
2023/08/07 03:59:05;;;;;;;;;;;;;;;16.36;63.75;100380.34;4986420;28;7516;-76
2023/08/07 04:01:31;;;;;;;;;;;;;;;16.35;63.88;100376.00;4969743;28;7119;-74
2023/08/07 04:03:56;;;;;;;;;;;;;;;16.35;63.98;100376.00;4986768;28;6934;-73
2023/08/07 04:06:21;;;;;;;;;;;;;;;16.35;63.72;100378.59;4995712;28;6974;-75
2023/08/07 04:08:47;;;;;;;;;;;;;;;16.34;64.07;100382.88;4969831;28;8097;-76
2023/08/07 04:11:13;;;;;;;;;;;;;;;16.32;64.04;100384.56;4989222;28;6808;-75
2023/08/07 04:13:39;;;;;;;;;;;;;;;16.31;64.06;100382.81;4968429;28;7325;-76
2023/08/07 04:16:05;;;;;;;;;;;;;;;16.30;64.20;100386.25;4987379;28;7190;-76
2023/08/07 04:18:31;;;;;;;;;;;;;;;16.31;63.89;100392.25;4975193;28;6800;-74
2023/08/07 04:20:57;;;;;;;;;;;;;;;16.28;64.07;100392.19;4990668;28;7242;-74
2023/08/07 04:23:23;;;;;;;;;;;;;;;16.28;63.82;100387.03;4975192;28;6867;-76
2023/08/07 04:25:50;;;;;;;;;;;;;;;16.27;64.18;100395.63;4990998;28;7352;-77
2023/08/07 04:28:16;;;;;;;;;;;;;;;16.26;64.08;100388.72;4988158;28;7162;-75
2023/08/07 04:30:42;;;;;;;;;;;;;;;16.22;64.28;100388.66;4961973;28;7149;-74
2023/08/07 04:33:08;;;;;;;;;;;;;;;16.23;64.05;100389.50;4977082;28;7010;-75
2023/08/07 04:35:34;;;;;;;;;;;;;;;16.23;63.64;100390.41;5008040;28;6998;-76
2023/08/07 04:38:00;;;;;;;;;;;;;;;16.23;64.11;100387.81;4993960;28;6864;-76
2023/08/07 04:40:26;;;;;;;;;;;;;;;16.23;63.97;100402.44;4994878;28;6962;-76
2023/08/07 04:42:52;;;;;;;;;;;;;;;16.23;64.12;100394.69;4989743;28;6784;-75
2023/08/07 04:45:18;;;;;;;;;;;;;;;16.23;64.05;100389.50;4979469;28;7024;-76
2023/08/07 04:47:43;;;;;;;;;;;;;;;16.23;63.92;100392.09;4987978;28;6838;-76
2023/08/07 04:50:09;;;;;;;;;;;;;;;16.22;64.26;100391.22;4992584;28;6791;-75
2023/08/07 04:52:35;;;;;;;;;;;;;;;16.22;63.89;100393.81;4995170;28;7361;-74
2023/08/07 04:55:01;;;;;;;;;;;;;;;16.25;63.90;100387.81;4988136;28;8501;-73
2023/08/07 04:57:26;;;;;;;;;;;;;;;16.28;63.68;100392.19;4986647;28;6811;-74
2023/08/07 04:59:52;;;;;;;;;;;;;;;16.31;63.79;100392.25;4996863;28;6983;-75
2023/08/07 05:02:18;;;;;;;;;;;;;;;16.33;63.83;100390.63;4992410;28;6787;-76
2023/08/07 05:04:44;;;;;;;;;;;;;;;16.37;63.44;100402.78;4994196;28;7083;-76
2023/08/07 05:07:09;;;;;;;;;;;;;;;16.40;63.93;100405.44;4994220;28;9001;-76
2023/08/07 05:09:35;;;;;;;;;;;;;;;16.42;63.77;100406.34;4985810;28;7081;-76
2023/08/07 05:12:01;;;;;;;;;;;;;;;16.43;63.27;100408.09;4990366;28;7352;-75
2023/08/07 05:14:26;;;;;;;;;;;;;;;16.44;63.47;100407.25;4991735;28;6896;-75
2023/08/07 05:16:52;;;;;;;;;;;;;;;16.46;63.31;100408.16;4995915;28;6827;-76
2023/08/07 05:19:17;;;;;;;;;;;;;;;16.47;63.45;100415.09;4984064;28;7141;-74
2023/08/07 05:21:43;;;;;;;;;;;;;;;16.47;63.51;100412.50;4995763;28;6784;-76
2023/08/07 05:24:08;;;;;;;;;;;;;;;16.48;63.08;100416.84;5008646;28;6823;-74
2023/08/07 05:26:34;;;;;;;;;;;;;;;16.50;63.11;100414.28;4977940;28;7110;-74
2023/08/07 05:29:00;;;;;;;;;;;;;;;16.48;63.33;100419.41;4973206;28;6858;-75
2023/08/07 05:31:25;;;;;;;;;;;;;;;16.49;62.54;100431.50;4984697;28;6775;-76
2023/08/07 05:33:51;;;;;;;;;;;;;;;16.49;62.38;100439.28;4985303;28;6779;-73
2023/08/07 05:36:16;;;;;;;;;;;;;;;16.49;63.00;100436.69;4970246;28;8149;-74
2023/08/07 05:38:41;;;;;;;;;;;;;;;16.51;63.35;100441.91;4958497;28;8152;-74
2023/08/07 05:41:09;;;;;;;;;;;;;;;16.54;63.18;100443.69;4963795;28;7314;-76
2023/08/07 05:43:34;;;;;;;;;;;;;;;16.55;62.46;100438.53;4983489;28;7140;-77
2023/08/07 05:46:00;;;;;;;;;;;;;;;16.59;62.77;100442.97;4981548;28;7023;-74
2023/08/07 05:48:26;;;;;;;;;;;;;;;16.64;62.15;100445.66;4983441;28;7150;-77
2023/08/07 05:50:52;;;;;;;;;;;;;;;16.67;63.03;100445.72;4983938;28;6779;-74
2023/08/07 05:53:17;;;;;;;;;;;;;;;16.72;62.37;100445.84;4969348;28;7028;-75
2023/08/07 05:55:43;;;;;;;;;;;;;;;16.74;62.34;100447.63;4985474;28;7788;-74
2023/08/07 05:58:08;;;;;;;;;;;;;;;16.76;62.65;100451.13;4977805;28;6851;-76
2023/08/07 06:00:34;;;;;;;;;;;;;;;16.79;62.30;100448.59;4969416;28;8565;-75
2023/08/07 06:03:00;;;;;;;;;;;;;;;16.79;62.13;100448.59;4984065;28;6850;-74
2023/08/07 06:05:25;;;;;;;;;;;;;;;16.82;62.32;100449.53;4993548;28;7940;-74
2023/08/07 06:07:51;;;;;;;;;;;;;;;16.83;61.93;100459.03;4985053;28;6788;-76
2023/08/07 06:10:16;;;;;;;;;;;;;;;16.85;61.96;100467.72;4986930;28;6799;-76
2023/08/07 06:12:42;;;;;;;;;;;;;;;16.87;61.96;100461.75;4998718;28;7185;-77
2023/08/07 06:15:08;;;;;;;;;;;;;;;16.88;61.98;100462.59;4998841;28;7071;-75
2023/08/07 06:17:34;;;;;;;;;;;;;;;16.89;62.25;100472.09;4980413;28;7018;-74
2023/08/07 06:19:59;;;;;;;;;;;;;;;16.91;62.16;100483.41;4981007;28;6804;-76
2023/08/07 06:22:25;;;;;;;;;;;;;;;16.94;61.96;100468.78;5001836;28;7034;-76
2023/08/07 06:24:50;;;;;;;;;;;;;;;16.99;62.22;100476.66;4991827;28;7503;-77
2023/08/07 06:27:16;;;;;;;;;;;;;;;17.02;61.83;100474.19;4990329;28;7125;-76
2023/08/07 06:29:41;;;;;;;;;;;;;;;17.03;61.94;100477.63;4988180;28;6792;-75
2023/08/07 06:32:07;;;;;;;;;;;;;;;17.04;61.44;100475.09;4997632;28;6788;-75
2023/08/07 06:34:32;;;;;;;;;;;;;;;17.04;61.35;100472.50;5014047;28;7174;-74
2023/08/07 06:36:58;;;;;;;;;;;;;;;17.06;61.79;100473.41;5011411;28;7132;-75
2023/08/07 06:39:23;;;;;;;;;;;;;;;17.06;61.58;100463.06;4994258;28;6795;-75
2023/08/07 06:41:49;;;;;;;;;;;;;;;17.09;61.35;100467.44;4982430;28;7029;-76
2023/08/07 06:44:15;;;;;;;;;;;;;;;17.13;61.80;100489.09;4995079;28;6835;-77
2023/08/07 06:46:40;;;;;;;;;;;;;;;17.15;61.69;100477.03;4988633;28;6969;-75
2023/08/07 06:49:05;;;;;;;;;;;;;;;17.19;61.36;100478.84;4993452;28;7708;-76
2023/08/07 06:51:31;;;;;;;;;;;;;;;17.23;61.13;100485.88;4995460;28;7035;-74
2023/08/07 06:53:56;;;;;;;;;;;;;;;17.29;61.40;100483.41;5010673;28;7624;-76
2023/08/07 06:56:22;;;;;;;;;;;;;;;17.38;60.90;100487.03;4993785;28;7359;-76
2023/08/07 06:58:47;;;;;;;;;;;;;;;17.43;61.45;100482.81;4996832;28;7096;-76
2023/08/07 07:01:13;;;;;;;;;;;;;;;17.49;61.28;100480.38;4991513;28;6783;-74
2023/08/07 07:03:38;;;;;;;;;;;;;;;17.54;61.18;100483.06;5009410;28;7248;-75
2023/08/07 07:06:04;;;;;;;;;;;;;;;17.61;61.44;100497.88;4994766;28;6799;-76
2023/08/07 07:08:29;;;;;;;;;;;;;;;17.70;61.21;100502.38;4994501;28;6784;-76
2023/08/07 07:10:57;;;;;;;;;;;;;;;17.79;60.85;100488.72;4977558;28;6969;-76
2023/08/07 07:13:22;;;;;;;;;;;;;;;17.87;61.29;100500.13;4994060;28;6974;-74
2023/08/07 07:15:52;;;;;;;;;;;;;;;17.96;60.78;100494.22;4976273;28;7248;-76
2023/08/07 07:18:18;;;;;;;;;;;;;;;18.03;60.30;100494.44;4989434;28;7580;-77
2023/08/07 07:20:43;;;;;;;;;;;;;;;18.11;60.16;100494.56;5003370;28;6915;-76
2023/08/07 07:23:09;;;;;;;;;;;;;;;18.17;59.64;100502.47;4994287;28;6803;-76
2023/08/07 07:25:34;;;;;;;;;;;;;;;18.23;59.89;100508.59;4990642;28;6855;-74
2023/08/07 07:28:00;;;;;;;;;;;;;;;18.26;60.27;100508.69;5010815;28;6787;-74
2023/08/07 07:30:25;;;;;;;;;;;;;;;18.31;59.58;100514.81;4984469;28;6772;-75
2023/08/07 07:32:51;;;;;;;;;;;;;;;18.36;59.68;100515.78;4987951;28;6933;-76
2023/08/07 07:35:16;;;;;;;;;;;;;;;18.42;59.81;100515.84;4990362;28;6942;-76
2023/08/07 07:37:42;;;;;;;;;;;;;;;18.52;59.55;100508.22;4997090;28;6985;-77
2023/08/07 07:40:08;;;;;;;;;;;;;;;18.58;59.79;100517.00;4991807;28;6799;-76
2023/08/07 07:42:33;;;;;;;;;;;;;;;18.65;59.56;100518.00;4975868;28;6993;-77
2023/08/07 07:44:59;;;;;;;;;;;;;;;18.75;59.01;100526.78;5010881;28;6827;-76
2023/08/07 07:47:24;;;;;;;;;;;;;;;18.85;59.37;100525.22;4993541;28;6811;-76
2023/08/07 07:50:05;;;;;;;;;;;;;;;18.95;59.28;100524.53;4983884;28;7119;-76
2023/08/07 07:52:30;;;;;;;;;;;;;;;19.05;59.08;100528.16;4990982;28;7452;-75
2023/08/07 07:54:56;;;;;;;;;;;;;;;19.17;58.95;100530.06;4996403;28;6776;-76
2023/08/07 07:57:21;;;;;;;;;;;;;;;19.29;58.68;100532.84;4992549;28;7109;-76
2023/08/07 07:59:48;;;;;;;;;;;;;;;19.40;58.95;100546.00;4992269;28;7140;-74
2023/08/07 08:02:15;;;;;;;;;;;;;;;19.51;58.93;100537.47;4999619;28;7250;-75
2023/08/07 08:04:41;;;;;;;;;;;;;;;19.65;58.52;100538.53;4989270;28;6811;-77
2023/08/07 08:07:07;;;;;;;;;;;;;;;19.80;58.18;100545.66;4976549;28;8538;-77
2023/08/07 08:09:32;;;;;;;;;;;;;;;19.96;58.10;100540.63;5010907;28;6961;-76
2023/08/07 08:11:59;;;;;;;;;;;;;;;20.10;57.95;100540.81;4991970;28;7213;-73
2023/08/07 08:14:25;;;;;;;;;;;;;;;20.21;57.43;100540.94;5005610;28;6872;-76
2023/08/07 08:16:50;;;;;;;;;;;;;;;20.29;56.95;100554.91;4995789;28;6796;-76
2023/08/07 08:19:16;;;;;;;;;;;;;;;20.39;56.68;100540.22;4989631;28;6871;-76
2023/08/07 08:21:42;;;;;;;;;;;;;;;20.47;56.36;100548.97;5005100;28;6783;-76
2023/08/07 08:24:07;;;;;;;;;;;;;;;20.60;55.84;100549.09;4991242;28;7011;-77
2023/08/07 08:26:33;;;;;;;;;;;;;;;20.70;55.74;100550.91;4989990;28;6847;-74
2023/08/07 08:28:58;;;;;;;;;;;;;;;20.81;55.89;100544.09;4973068;28;6836;-76
2023/08/07 08:31:24;;;;;;;;;;;;;;;20.95;55.43;100546.78;4993500;28;6993;-76
2023/08/07 08:33:50;;;;;;;;;;;;;;;21.08;54.91;100546.91;4999568;28;7186;-77
2023/08/07 08:36:15;;;;;;;;;;;;;;;21.19;54.82;100560.88;4989613;28;7085;-74
2023/08/07 08:38:41;;;;;;;;;;;;;;;21.27;54.47;100558.31;4985939;28;6980;-77
2023/08/07 08:41:08;;;;;;;;;;;;;;;21.34;54.02;100567.91;4985444;28;6799;-76
2023/08/07 08:43:36;;;;;;;;;;;;;;;21.48;54.05;100561.91;5011680;28;6804;-77
2023/08/07 08:46:01;;;;;;;;;;;;;;;21.64;54.02;100562.88;4985916;28;6974;-76
2023/08/07 08:48:28;;;;;;;;;;;;;;;21.82;53.30;100563.84;4997313;28;7232;-77
2023/08/07 08:50:54;;;;;;;;;;;;;;;21.98;53.36;100568.25;4995699;28;6826;-76
2023/08/07 08:53:21;;;;;;;;;;;;;;;22.16;52.94;100566.56;4994364;28;6812;-76
2023/08/07 08:55:47;;;;;;;;;;;;;;;22.37;52.41;100564.88;4991107;28;7546;-77
2023/08/07 08:58:16;;;;;;;;;;;;;;;22.59;51.73;100571.03;4990357;28;6804;-77
2023/08/07 09:00:42;;;;;;;;;;;;;;;22.83;51.20;100579.75;5002342;28;7065;-74
2023/08/07 09:03:08;;;;;;;;;;;;;;;23.04;50.86;100573.63;4991516;28;7188;-78
2023/08/07 09:05:35;;;;;;;;;;;;;;;23.27;50.03;100575.34;4977371;28;7234;-77
2023/08/07 09:08:01;;;;;;;;;;;;;;;23.46;49.97;100571.00;4997467;28;7014;-76
2023/08/07 09:10:27;;;;;;;;;;;;;;;23.61;49.06;100583.16;4981930;28;7026;-75
2023/08/07 09:13:05;;;;;;;;;;;;;;;23.71;48.73;100577.00;4993433;28;7031;-77
2023/08/07 09:15:36;;;;;;;;;;;;;;;23.77;47.43;100575.25;4995718;28;6807;-77
2023/08/07 09:18:07;;;;;;;;;;;;;;;23.86;47.88;100583.94;5009719;28;6954;-76
2023/08/07 09:20:34;;;;;;;;;;;;;;;23.93;47.24;100590.00;5001799;28;7167;-77
2023/08/07 09:22:59;;;;;;;;;;;;;;;23.85;46.94;100594.38;4995678;28;6807;-77
2023/08/07 09:25:33;;;;;;;;;;;;;;;23.56;46.51;100588.41;4985010;28;6981;-76
2023/08/07 09:28:04;;;;;;;;;;;;;;;23.31;47.60;100592.81;4993380;28;6872;-75
2023/08/07 09:30:30;;;;;;;;;;;;;;;23.10;47.27;100597.16;4994241;28;6815;-77
2023/08/07 09:33:02;;;;;;;;;;;;;;;23.12;48.05;100590.19;4987593;28;6815;-74
2023/08/07 09:35:29;;;;;;;;;;;;;;;23.37;48.30;100603.28;4993029;28;7241;-74
2023/08/07 09:37:57;;;;;;;;;;;;;;;23.61;47.55;100595.34;4990338;28;7029;-77
2023/08/07 09:40:22;;;;;;;;;;;;;;;23.63;46.82;100597.09;4978989;28;6959;-76
2023/08/07 09:42:53;;;;;;;;;;;;;;;23.49;46.45;100602.34;4998906;28;6784;-75
2023/08/07 09:45:30;;;;;;;;;;;;;;;23.36;46.28;100595.41;4972754;28;7075;-77
2023/08/07 09:48:03;;;;;;;;;;;;;;;23.16;45.94;100594.53;4981450;28;6808;-76
2023/08/07 09:50:30;;;;;;;;;;;;;;;22.95;46.07;100607.63;4997745;28;6998;-76
2023/08/07 09:52:57;;;;;;;;;;;;;;;22.69;46.19;100608.47;4995238;28;6804;-76
2023/08/07 09:55:23;;;;;;;;;;;;;;;22.48;46.77;100610.16;4990148;28;7014;-74
2023/08/07 09:57:49;;;;;;;;;;;;;;;22.50;47.37;100602.34;4992359;28;6788;-75
2023/08/07 10:00:15;;;;;;;;;;;;;;;23.13;48.33;100596.28;4998067;28;7664;-77
2023/08/07 10:02:45;;;;;;;;;;;;;;;24.25;47.46;100609.97;4994193;28;6945;-75
2023/08/07 10:05:11;;;;;;;;;;;;;;;25.14;45.28;100598.00;5013518;28;6807;-77
2023/08/07 10:07:38;;;;;;;;;;;;;;;25.46;43.77;100602.03;4997829;28;6999;-76
2023/08/07 10:10:04;;;;;;;;;;;;;;;25.31;43.08;100606.56;5000705;28;7252;-77
2023/08/07 10:12:29;;;;;;;;;;;;;;;24.98;43.22;100619.09;4998397;28;7182;-75
2023/08/07 10:14:55;;;;;;;;;;;;;;;24.81;43.56;100608.75;5010565;28;6779;-76
2023/08/07 10:17:22;;;;;;;;;;;;;;;25.28;44.45;100609.19;4994750;28;6784;-76
2023/08/07 10:19:48;;;;;;;;;;;;;;;25.86;43.46;100611.25;4986424;28;6978;-76
2023/08/07 10:22:15;;;;;;;;;;;;;;;26.17;41.91;100610.84;4992851;28;7265;-75
2023/08/07 10:24:43;;;;;;;;;;;;;;;26.66;40.34;100598.78;4994811;28;6831;-75
2023/08/07 10:27:11;;;;;;;;;;;;;;;26.92;39.15;100609.78;5001624;28;7008;-75
2023/08/07 10:29:39;;;;;;;;;;;;;;;27.27;38.96;100608.28;5007245;28;6808;-75
2023/08/07 10:32:07;;;;;;;;;;;;;;;27.21;37.51;100611.91;4994788;28;6814;-77
2023/08/07 10:34:34;;;;;;;;;;;;;;;26.70;38.29;100621.47;4990315;28;6807;-77
2023/08/07 10:36:59;;;;;;;;;;;;;;;26.26;38.57;100612.50;4988672;28;6800;-75
2023/08/07 10:39:25;;;;;;;;;;;;;;;26.15;39.17;100615.25;4996265;28;6847;-76
2023/08/07 10:41:54;;;;;;;;;;;;;;;26.65;39.34;100618.03;4986624;28;7686;-77
2023/08/07 10:44:24;;;;;;;;;;;;;;;27.52;38.70;100613.09;4983355;28;6966;-75
2023/08/07 10:47:00;;;;;;;;;;;;;;;28.56;38.19;100610.94;4996551;28;7038;-75
2023/08/07 10:49:38;;;;;;;;;;;;;;;29.33;36.13;100597.59;4993008;28;6867;-75
2023/08/07 10:52:07;;;;;;;;;;;;;;;29.28;35.91;100609.19;4995491;28;7050;-73
2023/08/07 10:54:42;;;;;;;;;;;;;;;28.65;35.42;100623.03;4988305;28;6998;-75
2023/08/07 10:57:11;;;;;;;;;;;;;;;27.84;35.85;100614.25;4996865;28;6823;-74
2023/08/07 10:59:37;;;;;;;;;;;;;;;27.59;36.54;100618.22;4995445;28;6812;-73
2023/08/07 11:02:07;;;;;;;;;;;;;;;27.55;36.47;100613.06;4994394;28;6962;-73
2023/08/07 11:04:36;;;;;;;;;;;;;;;27.85;35.85;100616.84;4982474;28;7362;-74
2023/08/07 11:07:02;;;;;;;;;;;;;;;28.37;35.30;100611.38;4991572;28;6999;-74
2023/08/07 11:09:27;;;;;;;;;;;;;;;28.97;34.34;100610.84;4986091;28;7333;-76
2023/08/07 11:11:53;;;;;;;;;;;;;;;29.47;33.63;100610.44;4990524;28;6825;-75
2023/08/07 11:14:19;;;;;;;;;;;;;;;29.97;33.04;100619.59;5011842;28;6839;-74
2023/08/07 11:16:46;;;;;;;;;;;;;;;30.42;31.68;100607.69;4995099;28;6803;-76
2023/08/07 11:19:19;;;;;;;;;;;;;;;30.82;31.32;100602.91;4994309;28;7961;-73
2023/08/07 11:21:44;;;;;;;;;;;;;;;30.67;31.19;100606.94;4994119;28;6867;-72
2023/08/07 11:24:13;;;;;;;;;;;;;;;30.47;31.55;100618.09;4992859;28;8438;-73
2023/08/07 11:26:39;;;;;;;;;;;;;;;30.32;31.72;100614.19;5011307;28;7015;-75
2023/08/07 11:29:04;;;;;;;;;;;;;;;30.04;31.77;100613.22;4999936;28;6973;-75
2023/08/07 11:31:30;;;;;;;;;;;;;;;30.02;31.69;100620.31;4991235;28;6795;-75
2023/08/07 11:33:58;;;;;;;;;;;;;;;29.95;31.34;100610.84;4993472;28;6838;-75
2023/08/07 11:36:24;;;;;;;;;;;;;;;29.64;32.11;100620.53;4990085;28;6808;-72
2023/08/07 11:38:49;;;;;;;;;;;;;;;29.08;31.45;100616.72;4988658;28;6815;-73
2023/08/07 11:41:17;;;;;;;;;;;;;;;28.35;32.19;100618.44;4992323;28;7287;-74
2023/08/07 11:43:43;;;;;;;;;;;;;;;27.65;33.19;100629.56;4992946;28;6815;-74
2023/08/07 11:46:10;;;;;;;;;;;;;;;27.38;34.19;100618.63;5005704;28;7834;-75
2023/08/07 11:48:37;;;;;;;;;;;;;;;27.44;34.73;100615.88;4990289;28;7145;-75
2023/08/07 11:51:05;;;;;;;;;;;;;;;27.43;34.82;100627.31;4997995;28;6972;-73
2023/08/07 11:53:32;;;;;;;;;;;;;;;27.27;35.00;100630.22;4996621;28;7418;-75
2023/08/07 11:56:00;;;;;;;;;;;;;;;26.84;34.63;100630.91;4989163;28;6800;-74
2023/08/07 11:58:27;;;;;;;;;;;;;;;26.41;35.73;100641.19;4990026;28;6807;-72
2023/08/07 12:00:54;;;;;;;;;;;;;;;26.42;35.41;100642.91;4992986;28;7213;-74
2023/08/07 12:03:32;;;;;;;;;;;;;;;26.40;35.73;100635.94;4996486;28;6994;-74
2023/08/07 12:05:58;;;;;;;;;;;;;;;26.82;36.08;100627.44;4981667;28;6977;-74
2023/08/07 12:08:25;;;;;;;;;;;;;;;27.46;35.71;100621.97;4989103;28;6787;-75
2023/08/07 12:10:54;;;;;;;;;;;;;;;28.22;34.73;100617.84;4993373;28;6792;-75
2023/08/07 12:13:29;;;;;;;;;;;;;;;28.65;34.15;100630.97;4973784;28;7006;-72
2023/08/07 12:15:56;;;;;;;;;;;;;;;28.69;34.72;100622.94;4988538;28;6807;-74
2023/08/07 12:18:23;;;;;;;;;;;;;;;28.94;34.61;100622.34;4994259;28;6799;-74
2023/08/07 12:20:55;;;;;;;;;;;;;;;29.49;33.84;100624.47;4990810;28;7076;-75
2023/08/07 12:23:21;;;;;;;;;;;;;;;30.12;33.50;100623.59;5004568;28;6812;-74
2023/08/07 12:25:47;;;;;;;;;;;;;;;30.45;32.31;100623.44;5009442;28;6792;-72
2023/08/07 12:28:12;;;;;;;;;;;;;;;30.15;31.89;100622.63;4990230;28;6791;-75
2023/08/07 12:30:38;;;;;;;;;;;;;;;29.52;32.06;100621.72;4991922;28;6808;-72
2023/08/07 12:33:04;;;;;;;;;;;;;;;28.89;32.25;100624.25;4983289;28;7284;-75
2023/08/07 12:35:30;;;;;;;;;;;;;;;28.08;32.63;100625.16;5011493;28;6847;-74
2023/08/07 12:37:56;;;;;;;;;;;;;;;27.37;33.47;100622.16;4996128;28;8884;-73
2023/08/07 12:40:23;;;;;;;;;;;;;;;27.33;34.42;100620.44;4991653;28;6855;-75
2023/08/07 12:42:49;;;;;;;;;;;;;;;27.76;34.00;100626.69;4998487;28;6819;-72
2023/08/07 12:45:15;;;;;;;;;;;;;;;28.06;34.24;100627.81;5006774;28;6856;-72